createdAt,value
2023-02-17T00:00:56.688Z,8.76
2023-02-17T00:03:24.930Z,8.78
2023-02-17T00:05:53.116Z,8.77
2023-02-17T00:08:21.029Z,8.79
2023-02-17T00:10:56.886Z,8.80
2023-02-17T00:13:24.639Z,8.80
2023-02-17T00:15:54.400Z,8.80
2023-02-17T00:18:22.402Z,8.82
2023-02-17T00:20:50.276Z,8.83
2023-02-17T00:23:18.231Z,8.84
2023-02-17T00:25:46.331Z,8.82
2023-02-17T00:28:14.071Z,8.83
2023-02-17T00:30:41.842Z,8.84
2023-02-17T00:33:10.914Z,8.86
2023-02-17T00:35:41.640Z,8.87
2023-02-17T00:38:09.893Z,8.87
2023-02-17T00:40:38.848Z,8.87
2023-02-17T00:43:06.809Z,8.87
2023-02-17T00:45:34.796Z,8.87
2023-02-17T00:48:02.542Z,8.87
2023-02-17T00:50:31.797Z,8.87
2023-02-17T00:52:59.493Z,8.89
2023-02-17T00:55:27.298Z,8.89
2023-02-17T00:57:55.152Z,8.89
2023-02-17T01:00:23.646Z,8.91
2023-02-17T01:02:51.668Z,8.93
2023-02-17T01:05:19.448Z,8.94
2023-02-17T01:07:48.760Z,8.95
2023-02-17T01:10:16.794Z,8.97
2023-02-17T01:12:44.570Z,8.99
2023-02-17T01:15:12.402Z,9.02
2023-02-17T01:17:40.192Z,9.03
2023-02-17T01:20:09.315Z,9.03
2023-02-17T01:22:39.664Z,9.06
2023-02-17T01:25:10.056Z,9.06
2023-02-17T01:27:38.437Z,9.08
2023-02-17T01:30:07.698Z,9.08
2023-02-17T01:32:35.573Z,9.08
2023-02-17T01:35:03.348Z,9.08
2023-02-17T01:37:33.123Z,9.07
2023-02-17T01:40:01.047Z,9.07
2023-02-17T01:42:30.220Z,9.09
2023-02-17T01:45:33.847Z,9.10
2023-02-17T01:48:06.138Z,9.11
2023-02-17T01:50:40.082Z,9.10
2023-02-17T01:53:10.172Z,9.12
2023-02-17T01:55:40.453Z,9.13
2023-02-17T01:58:12.876Z,9.12
2023-02-17T02:00:42.097Z,9.13
2023-02-17T02:03:13.942Z,9.16
2023-02-17T02:05:43.441Z,9.18
2023-02-17T02:08:13.161Z,9.19
2023-02-17T02:10:40.919Z,9.19
2023-02-17T02:13:10.446Z,9.21
2023-02-17T02:15:46.610Z,9.20
2023-02-17T02:18:37.225Z,9.22
2023-02-17T02:21:32.073Z,9.21
2023-02-17T02:24:13.182Z,9.23
2023-02-17T02:27:00.340Z,9.24
2023-02-17T02:29:51.548Z,9.23
2023-02-17T02:32:48.088Z,9.24
2023-02-17T02:35:22.233Z,9.26
2023-02-17T02:37:57.280Z,9.23
2023-02-17T02:40:29.343Z,9.25
2023-02-17T02:42:59.285Z,9.26
2023-02-17T02:45:27.115Z,9.28
2023-02-17T02:47:58.909Z,9.29
2023-02-17T02:50:42.991Z,9.31
2023-02-17T02:53:36.914Z,9.31
2023-02-17T02:56:14.754Z,9.34
2023-02-17T02:58:50.435Z,9.33
2023-02-17T03:01:26.794Z,9.35
2023-02-17T03:04:03.989Z,9.35
2023-02-17T03:06:37.271Z,9.38
2023-02-17T03:09:10.813Z,9.38
2023-02-17T03:11:38.839Z,9.38
2023-02-17T03:14:09.837Z,9.37
2023-02-17T03:16:39.098Z,9.38
2023-02-17T03:19:10.454Z,9.39
2023-02-17T03:21:40.944Z,9.39
2023-02-17T03:24:09.430Z,9.41
2023-02-17T03:26:37.329Z,9.40
2023-02-17T03:29:05.516Z,9.41
2023-02-17T03:31:33.745Z,9.40
2023-02-17T03:34:01.777Z,9.42
2023-02-17T03:36:30.951Z,9.42
2023-02-17T03:38:59.316Z,9.44
2023-02-17T03:41:27.725Z,9.44
2023-02-17T03:43:55.607Z,9.47
2023-02-17T03:46:23.362Z,9.49
2023-02-17T03:48:51.096Z,9.49
2023-02-17T03:51:20.473Z,9.51
2023-02-17T03:53:50.272Z,9.52
2023-02-17T03:56:19.488Z,9.52
2023-02-17T03:58:47.218Z,9.51
2023-02-17T04:01:15.512Z,9.52
2023-02-17T04:03:43.861Z,9.54
2023-02-17T04:06:12.602Z,9.51
2023-02-17T04:08:40.981Z,9.56
2023-02-17T04:11:11.035Z,9.55
2023-02-17T04:13:39.964Z,9.56
2023-02-17T04:16:09.604Z,9.57
2023-02-17T04:18:38.104Z,9.58
2023-02-17T04:21:06.816Z,9.59
2023-02-17T04:23:35.460Z,9.59
2023-02-17T04:26:03.701Z,9.61
2023-02-17T04:28:32.945Z,9.64
2023-02-17T04:31:01.342Z,9.63
2023-02-17T04:33:29.664Z,9.65
2023-02-17T04:35:59.704Z,9.67
2023-02-17T04:38:28.442Z,9.68
2023-02-17T04:40:57.137Z,9.70
2023-02-17T04:43:25.539Z,9.69
2023-02-17T04:45:55.164Z,9.69
2023-02-17T04:48:23.595Z,9.71
2023-02-17T04:50:51.453Z,9.72
2023-02-17T04:53:19.582Z,9.72
2023-02-17T04:55:50.498Z,9.73
2023-02-17T04:58:19.474Z,9.73
2023-02-17T05:00:48.152Z,9.73
2023-02-17T05:03:17.266Z,9.74
2023-02-17T05:05:45.040Z,9.73
2023-02-17T05:08:12.761Z,9.74
2023-02-17T05:10:40.452Z,9.71
2023-02-17T05:13:08.324Z,9.72
2023-02-17T05:15:36.442Z,9.70
2023-02-17T05:18:04.431Z,9.68
2023-02-17T05:20:33.458Z,9.68
2023-02-17T05:23:01.524Z,9.67
2023-02-17T05:25:29.439Z,9.67
2023-02-17T05:27:57.271Z,9.64
2023-02-17T05:30:25.044Z,9.65
2023-02-17T05:32:53.208Z,9.68
2023-02-17T05:35:21.028Z,9.71
2023-02-17T05:37:50.108Z,9.73
2023-02-17T05:40:18.121Z,9.73
2023-02-17T05:42:45.957Z,9.76
2023-02-17T05:45:13.669Z,9.76
2023-02-17T05:47:41.383Z,9.75
2023-02-17T05:50:09.647Z,9.74
2023-02-17T05:52:37.681Z,9.74
2023-02-17T05:55:07.782Z,9.74
2023-02-17T05:57:35.617Z,9.68
2023-02-17T06:00:03.974Z,9.64
2023-02-17T06:02:39.866Z,9.63
2023-02-17T06:05:08.669Z,9.59
2023-02-17T06:07:36.478Z,9.58
2023-02-17T06:10:06.387Z,9.59
2023-02-17T06:12:34.078Z,9.60
2023-02-17T06:15:01.841Z,9.61
2023-02-17T06:17:29.696Z,9.64
2023-02-17T06:19:57.404Z,9.66
2023-02-17T06:22:25.178Z,9.69
2023-02-17T06:24:52.930Z,9.72
2023-02-17T06:27:22.201Z,9.70
2023-02-17T06:29:50.029Z,9.74
2023-02-17T06:32:17.963Z,9.77
2023-02-17T06:34:45.717Z,9.77
2023-02-17T06:37:13.417Z,9.80
2023-02-17T06:39:41.141Z,9.82
2023-02-17T06:42:08.973Z,9.83
2023-02-17T06:44:38.061Z,9.87
2023-02-17T06:47:05.935Z,9.89
2023-02-17T06:49:33.645Z,9.90
2023-02-17T06:52:01.395Z,9.94
2023-02-17T06:54:29.278Z,9.95
2023-02-17T06:56:56.979Z,9.98
2023-02-17T06:59:24.946Z,9.99
2023-02-17T07:01:54.114Z,10.02
2023-02-17T07:04:22.013Z,10.06
2023-02-17T07:06:49.737Z,10.08
2023-02-17T07:09:17.498Z,10.11
2023-02-17T07:11:45.402Z,10.13
2023-02-17T07:14:13.135Z,10.16
2023-02-17T07:16:41.056Z,10.20
2023-02-17T07:19:10.194Z,10.22
2023-02-17T07:21:37.904Z,10.25
2023-02-17T07:24:06.037Z,10.28
2023-02-17T07:26:36.458Z,10.32
2023-02-17T07:29:04.357Z,10.34
2023-02-17T07:31:32.635Z,10.41
2023-02-17T07:34:01.429Z,10.42
2023-02-17T07:36:31.285Z,10.45
2023-02-17T07:38:59.190Z,10.52
2023-02-17T07:41:28.604Z,10.51
2023-02-17T07:43:58.121Z,10.51
2023-02-17T07:46:26.233Z,10.55
2023-02-17T07:48:54.928Z,10.57
2023-02-17T07:51:23.536Z,10.57
2023-02-17T07:53:53.280Z,10.58
2023-02-17T07:56:23.178Z,10.63
2023-02-17T07:58:51.292Z,10.67
2023-02-17T08:01:21.182Z,10.64
2023-02-17T08:03:49.900Z,10.65
2023-02-17T08:06:19.761Z,10.63
2023-02-17T08:09:05.357Z,10.66
2023-02-17T08:11:52.086Z,10.63
2023-02-17T08:14:21.962Z,10.63
2023-02-17T08:16:49.752Z,10.60
2023-02-17T08:19:17.673Z,10.62
2023-02-17T08:21:45.531Z,10.59
2023-02-17T08:24:13.289Z,10.58
2023-02-17T08:26:42.684Z,10.57
2023-02-17T08:29:10.455Z,10.57
2023-02-17T08:31:38.567Z,10.61
2023-02-17T08:34:08.280Z,10.62
2023-02-17T08:36:37.527Z,10.61
2023-02-17T08:39:06.498Z,10.61
2023-02-17T08:41:37.560Z,10.60
2023-02-17T08:44:11.258Z,10.58
2023-02-17T08:46:39.480Z,10.63
2023-02-17T08:49:07.739Z,10.61
2023-02-17T08:51:36.381Z,10.62
2023-02-17T08:54:06.360Z,10.68
2023-02-17T08:56:35.419Z,10.68
2023-02-17T08:59:03.440Z,10.67
2023-02-17T09:01:33.060Z,10.73
2023-02-17T09:04:02.579Z,10.75
2023-02-17T09:06:35.030Z,10.77
2023-02-17T09:09:03.201Z,10.77
2023-02-17T09:11:31.172Z,10.77
2023-02-17T09:13:58.940Z,10.80
2023-02-17T09:16:26.808Z,10.83
2023-02-17T09:18:56.162Z,10.86
2023-02-17T09:21:24.013Z,10.87
2023-02-17T09:23:53.707Z,10.90
2023-02-17T09:26:22.146Z,10.90
2023-02-17T09:28:50.356Z,10.93
2023-02-17T09:31:21.022Z,10.91
2023-02-17T09:33:50.163Z,10.97
2023-02-17T09:36:21.316Z,11.02
2023-02-17T09:38:50.270Z,11.00
2023-02-17T09:41:22.078Z,11.04
2023-02-17T09:43:50.823Z,11.03
2023-02-17T09:46:24.359Z,11.04
2023-02-17T09:48:54.680Z,11.03
2023-02-17T09:51:30.612Z,11.10
2023-02-17T09:54:06.677Z,11.15
2023-02-17T09:56:38.017Z,11.17
2023-02-17T09:59:12.685Z,11.20
2023-02-17T10:01:42.395Z,11.25
2023-02-17T10:04:17.037Z,11.30
2023-02-17T10:06:48.089Z,11.29
2023-02-17T10:09:22.056Z,11.33
2023-02-17T10:11:56.680Z,11.37
2023-02-17T10:14:30.321Z,11.40
2023-02-17T10:17:03.555Z,11.57
2023-02-17T10:19:35.236Z,11.59
2023-02-17T10:22:10.194Z,11.86
2023-02-17T10:24:37.934Z,12.00
2023-02-17T10:27:20.093Z,12.08
2023-02-17T10:29:58.399Z,12.20
2023-02-17T10:32:28.089Z,12.18
2023-02-17T10:35:17.029Z,12.34
2023-02-17T10:37:51.365Z,12.35
2023-02-17T10:40:22.921Z,12.34
2023-02-17T10:42:53.716Z,12.32
2023-02-17T10:45:30.565Z,12.40
2023-02-17T10:48:03.509Z,12.46
2023-02-17T10:50:31.736Z,12.48
2023-02-17T10:53:00.870Z,12.63
2023-02-17T10:55:35.311Z,12.85
2023-02-17T10:58:12.106Z,12.88
2023-02-17T11:00:42.313Z,12.95
2023-02-17T11:03:20.416Z,13.15
2023-02-17T11:05:55.969Z,13.21
2023-02-17T11:08:38.081Z,13.34
2023-02-17T11:11:08.829Z,13.49
2023-02-17T11:13:40.058Z,13.60
2023-02-17T11:16:08.502Z,13.60
2023-02-17T11:18:45.598Z,13.53
2023-02-17T11:21:13.424Z,13.76
2023-02-17T11:23:50.666Z,13.77
2023-02-17T11:26:22.745Z,13.97
2023-02-17T11:28:50.852Z,14.19
2023-02-17T11:31:29.329Z,14.31
2023-02-17T11:33:57.468Z,14.31
2023-02-17T11:36:26.816Z,14.29
2023-02-17T11:38:56.726Z,14.25
2023-02-17T11:41:25.065Z,14.12
2023-02-17T11:43:55.091Z,14.13
2023-02-17T11:46:29.085Z,14.20
2023-02-17T11:49:26.841Z,14.26
2023-02-17T11:52:06.316Z,14.22
2023-02-17T11:54:48.800Z,14.24
2023-02-17T11:57:34.269Z,14.36
2023-02-17T12:00:14.037Z,14.42
2023-02-17T12:03:22.010Z,14.44
2023-02-17T12:06:01.663Z,14.43
2023-02-17T12:08:40.834Z,14.26
2023-02-17T12:11:19.354Z,13.97
2023-02-17T12:14:00.931Z,13.91
2023-02-17T12:16:41.983Z,13.74
2023-02-17T12:19:29.062Z,13.58
2023-02-17T12:22:08.162Z,13.62
2023-02-17T12:24:52.457Z,13.64
2023-02-17T12:27:35.062Z,13.70
2023-02-17T12:30:24.695Z,13.73
2023-02-17T12:33:11.361Z,13.72
2023-02-17T12:35:50.945Z,13.69
2023-02-17T12:38:20.459Z,13.64
2023-02-17T12:40:53.532Z,13.50
2023-02-17T12:43:28.673Z,13.32
2023-02-17T12:46:00.356Z,13.24
2023-02-17T12:48:35.055Z,13.14
2023-02-17T12:51:09.716Z,13.03
2023-02-17T12:53:52.419Z,12.98
2023-02-17T12:56:48.121Z,12.88
2023-02-17T12:59:20.760Z,12.79
2023-02-17T13:02:01.558Z,12.82
2023-02-17T13:04:31.036Z,12.73
2023-02-17T13:07:19.114Z,12.73
2023-02-17T13:09:50.838Z,12.72
2023-02-17T13:12:32.622Z,12.66
2023-02-17T13:15:03.619Z,12.64
2023-02-17T13:17:33.644Z,12.58
2023-02-17T13:20:26.933Z,12.55
2023-02-17T13:23:07.157Z,12.53
2023-02-17T13:25:37.780Z,12.50
2023-02-17T13:28:32.754Z,12.50
2023-02-17T13:31:11.245Z,12.52
2023-02-17T13:33:45.712Z,12.57
2023-02-17T13:36:35.349Z,12.55
2023-02-17T13:39:05.222Z,12.53
2023-02-17T13:41:45.042Z,12.52
2023-02-17T13:44:28.649Z,12.57
2023-02-17T13:47:00.920Z,12.58
2023-02-17T13:49:32.858Z,12.53
2023-02-17T13:52:18.814Z,12.40
2023-02-17T13:54:54.304Z,12.32
2023-02-17T13:57:27.662Z,12.34
2023-02-17T14:00:08.073Z,12.19
2023-02-17T14:02:47.354Z,12.02
2023-02-17T14:05:20.872Z,12.02
2023-02-17T14:07:49.981Z,12.04
2023-02-17T14:10:20.683Z,11.85
2023-02-17T14:12:49.815Z,11.84
2023-02-17T14:15:19.891Z,11.79
2023-02-17T14:17:49.181Z,11.77
2023-02-17T14:20:32.446Z,11.71
2023-02-17T14:23:05.878Z,11.62
2023-02-17T14:25:36.888Z,11.55
2023-02-17T14:28:05.535Z,11.54
2023-02-17T14:30:35.216Z,11.49
2023-02-17T14:33:09.722Z,11.46
2023-02-17T14:35:39.347Z,11.45
2023-02-17T14:38:21.734Z,11.40
2023-02-17T14:40:50.248Z,11.36
2023-02-17T14:43:17.942Z,11.27
2023-02-17T14:45:46.020Z,11.27
2023-02-17T14:48:15.518Z,11.29
2023-02-17T14:50:44.693Z,11.27
2023-02-17T14:53:15.381Z,11.28
2023-02-17T14:55:48.548Z,11.27
2023-02-17T14:58:20.666Z,11.28
2023-02-17T15:00:48.865Z,11.28
2023-02-17T15:03:18.213Z,11.32
2023-02-17T15:05:46.923Z,11.32
2023-02-17T15:08:17.105Z,11.35
2023-02-17T15:10:45.474Z,11.36
2023-02-17T15:13:15.869Z,11.35
2023-02-17T15:15:45.025Z,11.33
2023-02-17T15:18:13.008Z,11.29
2023-02-17T15:20:44.143Z,11.29
2023-02-17T15:23:15.138Z,11.32
2023-02-17T15:25:43.717Z,11.28
2023-02-17T15:28:14.295Z,11.22
2023-02-17T15:30:42.223Z,11.24
2023-02-17T15:33:13.227Z,11.24
2023-02-17T15:35:43.129Z,11.21
2023-02-17T15:38:12.645Z,11.18
2023-02-17T15:40:41.614Z,11.21
2023-02-17T15:43:14.369Z,11.25
2023-02-17T15:45:42.153Z,11.26
2023-02-17T15:48:14.170Z,11.22
2023-02-17T15:50:43.302Z,11.24
2023-02-17T15:53:11.226Z,11.25
2023-02-17T15:55:40.471Z,11.28
2023-02-17T15:58:15.104Z,11.32
2023-02-17T16:00:43.389Z,11.31
2023-02-17T16:03:13.462Z,11.27
2023-02-17T16:05:43.372Z,11.28
2023-02-17T16:08:11.161Z,11.29
2023-02-17T16:10:42.272Z,11.28
2023-02-17T16:13:14.548Z,11.28
2023-02-17T16:15:42.760Z,11.26
2023-02-17T16:18:17.433Z,11.26
2023-02-17T16:20:47.167Z,11.27
2023-02-17T16:23:14.909Z,11.27
2023-02-17T16:25:44.555Z,11.23
2023-02-17T16:28:16.380Z,11.22
2023-02-17T16:30:46.196Z,11.24
2023-02-17T16:33:14.866Z,11.24
2023-02-17T16:35:43.517Z,11.23
2023-02-17T16:38:19.149Z,11.21
2023-02-17T16:40:50.261Z,11.21
2023-02-17T16:43:20.080Z,11.20
2023-02-17T16:45:53.894Z,11.16
2023-02-17T16:48:23.395Z,11.17
2023-02-17T16:50:51.204Z,11.18
2023-02-17T16:53:20.992Z,11.14
2023-02-17T16:55:49.119Z,11.14
2023-02-17T16:58:19.147Z,11.15
2023-02-17T17:00:48.480Z,11.14
2023-02-17T17:03:16.432Z,11.14
2023-02-17T17:05:44.402Z,11.16
2023-02-17T17:08:15.974Z,11.17
2023-02-17T17:10:46.518Z,11.17
2023-02-17T17:13:14.714Z,11.17
2023-02-17T17:15:45.593Z,11.20
2023-02-17T17:18:19.675Z,11.19
2023-02-17T17:20:47.399Z,11.19
2023-02-17T17:23:15.795Z,11.22
2023-02-17T17:25:47.108Z,11.21
2023-02-17T17:28:15.905Z,11.21
2023-02-17T17:30:43.997Z,11.22
2023-02-17T17:33:11.823Z,11.21
2023-02-17T17:35:39.566Z,11.19
2023-02-17T17:38:07.546Z,11.17
2023-02-17T17:40:48.281Z,11.17
2023-02-17T17:43:18.690Z,11.17
2023-02-17T17:45:46.947Z,11.15
2023-02-17T17:48:16.049Z,11.12
2023-02-17T17:50:44.386Z,11.11
2023-02-17T17:53:12.180Z,11.09
2023-02-17T17:55:39.906Z,11.06
2023-02-17T17:58:07.776Z,11.06
2023-02-17T18:00:36.928Z,11.06
2023-02-17T18:03:05.109Z,11.07
2023-02-17T18:05:33.053Z,11.07
2023-02-17T18:08:02.052Z,11.09
2023-02-17T18:10:29.843Z,11.06
2023-02-17T18:12:57.693Z,11.06
2023-02-17T18:15:25.699Z,11.03
2023-02-17T18:17:54.851Z,11.02
2023-02-17T18:20:22.871Z,11.02
2023-02-17T18:22:50.653Z,11.01
2023-02-17T18:25:18.923Z,11.00
2023-02-17T18:27:48.388Z,10.97
2023-02-17T18:30:20.401Z,11.00
2023-02-17T18:32:48.550Z,10.95
2023-02-17T18:35:18.410Z,10.92
2023-02-17T18:37:46.271Z,10.91
2023-02-17T18:40:15.957Z,10.89
2023-02-17T18:42:45.514Z,10.82
2023-02-17T18:45:14.376Z,10.83
2023-02-17T18:47:42.862Z,10.82
2023-02-17T18:50:11.842Z,10.78
2023-02-17T18:52:42.772Z,10.74
2023-02-17T18:55:11.561Z,10.63
2023-02-17T18:57:39.634Z,10.61
2023-02-17T19:00:10.176Z,10.50
2023-02-17T19:02:38.440Z,10.41
2023-02-17T19:05:06.399Z,10.28
2023-02-17T19:07:34.776Z,10.26
2023-02-17T19:10:05.045Z,10.17
2023-02-17T19:12:34.225Z,10.12
2023-02-17T19:15:01.990Z,10.08
2023-02-17T19:17:29.890Z,10.04
2023-02-17T19:19:58.844Z,9.94
2023-02-17T19:22:26.649Z,9.89
2023-02-17T19:24:55.345Z,9.82
2023-02-17T19:27:24.475Z,9.78
2023-02-17T19:29:52.197Z,9.70
2023-02-17T19:32:19.982Z,9.63
2023-02-17T19:34:47.745Z,9.54
2023-02-17T19:37:15.528Z,9.49
2023-02-17T19:39:43.264Z,9.45
2023-02-17T19:42:11.030Z,9.45
2023-02-17T19:44:40.094Z,9.43
2023-02-17T19:47:07.870Z,9.43
2023-02-17T19:49:35.586Z,9.41
2023-02-17T19:52:03.294Z,9.42
2023-02-17T19:54:31.101Z,9.40
2023-02-17T19:56:59.005Z,9.39
2023-02-17T19:59:26.737Z,9.36
2023-02-17T20:01:55.830Z,9.31
2023-02-17T20:04:23.599Z,9.25
2023-02-17T20:06:52.580Z,9.18
2023-02-17T20:09:23.111Z,9.09
2023-02-17T20:11:53.026Z,8.98
2023-02-17T20:14:21.254Z,8.92
2023-02-17T20:16:49.520Z,8.85
2023-02-17T20:19:18.574Z,8.77
2023-02-17T20:21:46.302Z,8.70
2023-02-17T20:24:14.936Z,8.66
2023-02-17T20:26:45.294Z,8.61
2023-02-17T20:29:13.907Z,8.52
2023-02-17T20:31:42.647Z,8.45
2023-02-17T20:34:26.851Z,8.39
2023-02-17T20:36:54.702Z,8.35
2023-02-17T20:39:22.697Z,8.32
2023-02-17T20:41:50.846Z,8.30
2023-02-17T20:44:18.731Z,8.27
2023-02-17T20:46:46.860Z,8.24
2023-02-17T20:49:15.329Z,8.22
2023-02-17T20:51:44.395Z,8.19
2023-02-17T20:54:12.163Z,8.19
2023-02-17T20:56:41.633Z,8.19
2023-02-17T20:59:12.864Z,8.22
2023-02-17T21:01:41.102Z,8.23
2023-02-17T21:04:09.518Z,8.25
2023-02-17T21:06:39.573Z,8.30
2023-02-17T21:09:13.785Z,8.33
2023-02-17T21:11:41.770Z,8.38
2023-02-17T21:14:10.163Z,8.42
2023-02-17T21:16:38.020Z,8.48
2023-02-17T21:19:06.429Z,8.51
2023-02-17T21:21:34.306Z,8.58
2023-02-17T21:24:02.688Z,8.61
2023-02-17T21:26:31.833Z,8.66
2023-02-17T21:28:59.607Z,8.67
2023-02-17T21:31:28.838Z,8.71
2023-02-17T21:33:58.381Z,8.70
2023-02-17T21:36:28.998Z,8.71
2023-02-17T21:38:57.128Z,8.68
2023-02-17T21:41:26.459Z,8.66
2023-02-17T21:44:12.989Z,8.65
2023-02-17T21:46:42.925Z,8.62
2023-02-17T21:49:11.428Z,8.63
2023-02-17T21:51:40.313Z,8.65
2023-02-17T21:54:09.290Z,8.64
2023-02-17T21:56:37.397Z,8.65
2023-02-17T21:59:06.700Z,8.65
2023-02-17T22:01:34.705Z,8.61
2023-02-17T22:04:02.509Z,8.59
2023-02-17T22:06:32.169Z,8.54
2023-02-17T22:09:00.591Z,8.53
2023-02-17T22:11:30.979Z,8.48
2023-02-17T22:14:00.006Z,8.46
2023-02-17T22:16:30.785Z,8.45
2023-02-17T22:18:58.605Z,8.43
2023-02-17T22:21:26.391Z,8.40
2023-02-17T22:23:54.273Z,8.38
2023-02-17T22:26:24.438Z,8.32
2023-02-17T22:28:53.863Z,8.28
2023-02-17T22:31:23.804Z,8.24
2023-02-17T22:33:53.086Z,8.24
2023-02-17T22:36:23.096Z,8.21
2023-02-17T22:38:50.900Z,8.19
2023-02-17T22:41:20.592Z,8.19
2023-02-17T22:43:50.028Z,8.19
2023-02-17T22:46:21.720Z,8.15
2023-02-17T22:48:51.919Z,8.15
2023-02-17T22:51:22.984Z,8.13
2023-02-17T22:53:51.042Z,8.14
2023-02-17T22:56:19.384Z,8.16
2023-02-17T22:58:47.177Z,8.17
2023-02-17T23:01:17.734Z,8.17
2023-02-17T23:03:47.361Z,8.18
2023-02-17T23:06:17.873Z,8.15
2023-02-17T23:08:47.668Z,8.13
2023-02-17T23:11:19.037Z,8.11
2023-02-17T23:13:46.842Z,8.04
2023-02-17T23:16:21.441Z,7.97
2023-02-17T23:18:49.280Z,7.89
2023-02-17T23:21:17.058Z,7.79
2023-02-17T23:23:44.863Z,7.73
2023-02-17T23:26:15.239Z,7.68
2023-02-17T23:28:43.133Z,7.64
2023-02-17T23:31:11.291Z,7.64
2023-02-17T23:33:39.327Z,7.64
2023-02-17T23:36:08.624Z,7.60
2023-02-17T23:38:36.544Z,7.53
2023-02-17T23:41:04.611Z,7.43
2023-02-17T23:43:33.754Z,7.34
2023-02-17T23:46:01.975Z,7.30
2023-02-17T23:48:29.673Z,7.28
2023-02-17T23:50:58.184Z,7.28
2023-02-17T23:53:26.426Z,7.27
2023-02-17T23:56:02.824Z,7.24
2023-02-17T23:58:30.774Z,7.19
